sensor_id;sensor_type;location;lat;lon;timestamp;P1;durP1;ratioP1;P2;durP2;ratioP2
36383;SDS011;22418;51.210;6.976;2024-01-25T00:00:40;62.73;;;9.57;;
36383;SDS011;22418;51.210;6.976;2024-01-25T00:03:11;52.38;;;9.57;;
36383;SDS011;22418;51.210;6.976;2024-01-25T00:05:41;83.13;;;10.23;;
36383;SDS011;22418;51.210;6.976;2024-01-25T00:10:44;57.83;;;8.93;;
36383;SDS011;22418;51.210;6.976;2024-01-25T00:13:14;59.70;;;9.53;;
36383;SDS011;22418;51.210;6.976;2024-01-25T00:15:45;58.53;;;9.60;;
36383;SDS011;22418;51.210;6.976;2024-01-25T00:18:15;65.93;;;9.50;;
36383;SDS011;22418;51.210;6.976;2024-01-25T00:20:46;67.70;;;9.73;;
36383;SDS011;22418;51.210;6.976;2024-01-25T00:23:17;72.30;;;11.10;;
36383;SDS011;22418;51.210;6.976;2024-01-25T00:25:47;60.83;;;9.57;;
36383;SDS011;22418;51.210;6.976;2024-01-25T00:28:19;58.33;;;9.53;;
36383;SDS011;22418;51.210;6.976;2024-01-25T00:33:20;55.08;;;9.18;;
36383;SDS011;22418;51.210;6.976;2024-01-25T00:35:50;62.57;;;10.60;;
36383;SDS011;22418;51.210;6.976;2024-01-25T00:38:21;67.28;;;8.98;;
36383;SDS011;22418;51.210;6.976;2024-01-25T00:40:52;66.72;;;10.57;;
36383;SDS011;22418;51.210;6.976;2024-01-25T00:43:23;65.60;;;9.40;;
36383;SDS011;22418;51.210;6.976;2024-01-25T00:45:54;65.22;;;9.45;;
36383;SDS011;22418;51.210;6.976;2024-01-25T00:48:25;73.90;;;9.73;;
36383;SDS011;22418;51.210;6.976;2024-01-25T00:50:55;73.75;;;10.05;;
36383;SDS011;22418;51.210;6.976;2024-01-25T00:53:26;64.50;;;9.10;;
36383;SDS011;22418;51.210;6.976;2024-01-25T00:55:57;57.25;;;8.88;;
36383;SDS011;22418;51.210;6.976;2024-01-25T00:58:28;76.70;;;11.38;;
36383;SDS011;22418;51.210;6.976;2024-01-25T01:00:59;63.83;;;9.53;;
36383;SDS011;22418;51.210;6.976;2024-01-25T01:03:30;57.72;;;9.18;;
36383;SDS011;22418;51.210;6.976;2024-01-25T01:06:01;63.55;;;11.30;;
36383;SDS011;22418;51.210;6.976;2024-01-25T01:08:31;63.88;;;9.63;;
36383;SDS011;22418;51.210;6.976;2024-01-25T01:11:02;54.97;;;8.73;;
36383;SDS011;22418;51.210;6.976;2024-01-25T01:13:33;62.53;;;10.45;;
36383;SDS011;22418;51.210;6.976;2024-01-25T01:16:04;57.83;;;9.37;;
36383;SDS011;22418;51.210;6.976;2024-01-25T01:18:34;56.40;;;10.07;;
36383;SDS011;22418;51.210;6.976;2024-01-25T01:21:05;59.87;;;8.73;;
36383;SDS011;22418;51.210;6.976;2024-01-25T01:23:35;63.03;;;9.13;;
36383;SDS011;22418;51.210;6.976;2024-01-25T01:26:07;65.27;;;10.43;;
36383;SDS011;22418;51.210;6.976;2024-01-25T01:31:08;59.87;;;9.23;;
36383;SDS011;22418;51.210;6.976;2024-01-25T01:33:38;48.53;;;9.43;;
36383;SDS011;22418;51.210;6.976;2024-01-25T01:36:09;68.83;;;9.60;;
36383;SDS011;22418;51.210;6.976;2024-01-25T01:38:40;74.60;;;10.63;;
36383;SDS011;22418;51.210;6.976;2024-01-25T01:41:10;63.17;;;9.90;;
36383;SDS011;22418;51.210;6.976;2024-01-25T01:43:44;76.32;;;9.43;;
36383;SDS011;22418;51.210;6.976;2024-01-25T01:49:05;55.58;;;9.57;;
36383;SDS011;22418;51.210;6.976;2024-01-25T01:51:37;53.58;;;8.88;;
36383;SDS011;22418;51.210;6.976;2024-01-25T01:54:10;59.90;;;10.07;;
36383;SDS011;22418;51.210;6.976;2024-01-25T01:56:40;58.58;;;9.15;;
36383;SDS011;22418;51.210;6.976;2024-01-25T01:59:11;68.53;;;10.20;;
36383;SDS011;22418;51.210;6.976;2024-01-25T02:01:42;62.57;;;10.30;;
36383;SDS011;22418;51.210;6.976;2024-01-25T02:04:12;52.83;;;8.47;;
36383;SDS011;22418;51.210;6.976;2024-01-25T02:06:43;50.00;;;7.90;;
36383;SDS011;22418;51.210;6.976;2024-01-25T02:09:15;62.55;;;11.82;;
36383;SDS011;22418;51.210;6.976;2024-01-25T02:11:46;48.22;;;8.73;;
36383;SDS011;22418;51.210;6.976;2024-01-25T02:14:17;70.07;;;11.40;;
36383;SDS011;22418;51.210;6.976;2024-01-25T02:16:47;50.90;;;8.32;;
36383;SDS011;22418;51.210;6.976;2024-01-25T02:19:18;47.00;;;8.30;;
36383;SDS011;22418;51.210;6.976;2024-01-25T02:21:49;60.53;;;8.97;;
36383;SDS011;22418;51.210;6.976;2024-01-25T02:24:23;66.00;;;10.20;;
36383;SDS011;22418;51.210;6.976;2024-01-25T02:26:54;50.73;;;8.93;;
36383;SDS011;22418;51.210;6.976;2024-01-25T02:29:24;65.43;;;9.83;;
36383;SDS011;22418;51.210;6.976;2024-01-25T02:31:55;65.87;;;9.23;;
36383;SDS011;22418;51.210;6.976;2024-01-25T02:34:25;59.13;;;9.37;;
36383;SDS011;22418;51.210;6.976;2024-01-25T02:36:56;78.70;;;9.77;;
36383;SDS011;22418;51.210;6.976;2024-01-25T02:39:29;66.90;;;10.13;;
36383;SDS011;22418;51.210;6.976;2024-01-25T02:41:59;70.82;;;10.93;;
36383;SDS011;22418;51.210;6.976;2024-01-25T02:44:30;50.80;;;9.10;;
36383;SDS011;22418;51.210;6.976;2024-01-25T02:47:00;59.30;;;9.73;;
36383;SDS011;22418;51.210;6.976;2024-01-25T02:49:31;71.60;;;10.07;;
36383;SDS011;22418;51.210;6.976;2024-01-25T02:52:02;62.77;;;8.80;;
36383;SDS011;22418;51.210;6.976;2024-01-25T02:54:35;50.20;;;10.02;;
36383;SDS011;22418;51.210;6.976;2024-01-25T02:57:09;71.25;;;10.63;;
36383;SDS011;22418;51.210;6.976;2024-01-25T02:59:40;53.55;;;9.38;;
36383;SDS011;22418;51.210;6.976;2024-01-25T03:02:10;59.80;;;9.67;;
36383;SDS011;22418;51.210;6.976;2024-01-25T03:04:41;67.77;;;10.90;;
36383;SDS011;22418;51.210;6.976;2024-01-25T03:07:11;66.03;;;10.07;;
36383;SDS011;22418;51.210;6.976;2024-01-25T03:09:42;64.97;;;10.23;;
36383;SDS011;22418;51.210;6.976;2024-01-25T03:12:13;58.67;;;8.67;;
36383;SDS011;22418;51.210;6.976;2024-01-25T03:14:43;66.10;;;10.40;;
36383;SDS011;22418;51.210;6.976;2024-01-25T03:17:14;65.83;;;10.13;;
36383;SDS011;22418;51.210;6.976;2024-01-25T03:19:44;83.00;;;11.20;;
36383;SDS011;22418;51.210;6.976;2024-01-25T03:22:15;76.03;;;10.20;;
36383;SDS011;22418;51.210;6.976;2024-01-25T03:24:45;72.70;;;11.70;;
36383;SDS011;22418;51.210;6.976;2024-01-25T03:27:16;68.45;;;9.90;;
36383;SDS011;22418;51.210;6.976;2024-01-25T03:29:47;56.33;;;9.83;;
36383;SDS011;22418;51.210;6.976;2024-01-25T03:32:17;64.37;;;10.27;;
36383;SDS011;22418;51.210;6.976;2024-01-25T03:34:48;50.77;;;7.97;;
36383;SDS011;22418;51.210;6.976;2024-01-25T03:37:18;54.37;;;8.40;;
36383;SDS011;22418;51.210;6.976;2024-01-25T03:39:49;55.90;;;10.40;;
36383;SDS011;22418;51.210;6.976;2024-01-25T03:42:19;80.30;;;10.10;;
36383;SDS011;22418;51.210;6.976;2024-01-25T03:44:50;65.37;;;9.33;;
36383;SDS011;22418;51.210;6.976;2024-01-25T03:47:21;62.85;;;9.98;;
36383;SDS011;22418;51.210;6.976;2024-01-25T03:49:52;67.73;;;9.60;;
36383;SDS011;22418;51.210;6.976;2024-01-25T03:52:23;56.67;;;9.97;;
36383;SDS011;22418;51.210;6.976;2024-01-25T03:54:53;58.85;;;9.38;;
36383;SDS011;22418;51.210;6.976;2024-01-25T03:57:24;75.33;;;12.40;;
36383;SDS011;22418;51.210;6.976;2024-01-25T03:59:54;67.00;;;9.90;;
36383;SDS011;22418;51.210;6.976;2024-01-25T04:02:25;54.33;;;9.23;;
36383;SDS011;22418;51.210;6.976;2024-01-25T04:04:56;56.13;;;9.67;;
36383;SDS011;22418;51.210;6.976;2024-01-25T04:07:26;51.70;;;8.70;;
36383;SDS011;22418;51.210;6.976;2024-01-25T04:09:57;65.27;;;10.13;;
36383;SDS011;22418;51.210;6.976;2024-01-25T04:12:27;57.93;;;8.43;;
36383;SDS011;22418;51.210;6.976;2024-01-25T04:14:58;50.83;;;9.10;;
36383;SDS011;22418;51.210;6.976;2024-01-25T04:17:28;74.97;;;11.87;;
36383;SDS011;22418;51.210;6.976;2024-01-25T04:19:59;77.23;;;9.53;;
36383;SDS011;22418;51.210;6.976;2024-01-25T04:22:29;68.97;;;9.47;;
36383;SDS011;22418;51.210;6.976;2024-01-25T04:25:00;65.73;;;9.97;;
36383;SDS011;22418;51.210;6.976;2024-01-25T04:27:30;53.47;;;8.33;;
36383;SDS011;22418;51.210;6.976;2024-01-25T04:30:01;59.63;;;10.00;;
36383;SDS011;22418;51.210;6.976;2024-01-25T04:32:33;65.80;;;10.00;;
36383;SDS011;22418;51.210;6.976;2024-01-25T04:35:04;71.43;;;11.47;;
36383;SDS011;22418;51.210;6.976;2024-01-25T04:37:35;49.17;;;8.80;;
36383;SDS011;22418;51.210;6.976;2024-01-25T04:40:06;73.10;;;10.23;;
36383;SDS011;22418;51.210;6.976;2024-01-25T04:42:37;52.72;;;9.00;;
36383;SDS011;22418;51.210;6.976;2024-01-25T04:45:08;63.57;;;8.40;;
36383;SDS011;22418;51.210;6.976;2024-01-25T04:47:38;60.00;;;9.07;;
36383;SDS011;22418;51.210;6.976;2024-01-25T04:50:09;76.43;;;10.25;;
36383;SDS011;22418;51.210;6.976;2024-01-25T04:52:40;57.73;;;9.37;;
36383;SDS011;22418;51.210;6.976;2024-01-25T04:55:10;63.40;;;9.07;;
36383;SDS011;22418;51.210;6.976;2024-01-25T04:57:41;49.23;;;8.53;;
36383;SDS011;22418;51.210;6.976;2024-01-25T05:00:12;68.93;;;9.70;;
36383;SDS011;22418;51.210;6.976;2024-01-25T05:02:43;57.83;;;9.57;;
36383;SDS011;22418;51.210;6.976;2024-01-25T05:05:13;64.27;;;9.93;;
36383;SDS011;22418;51.210;6.976;2024-01-25T05:07:44;58.15;;;9.57;;
36383;SDS011;22418;51.210;6.976;2024-01-25T05:10:14;49.43;;;7.87;;
36383;SDS011;22418;51.210;6.976;2024-01-25T05:12:45;58.40;;;9.73;;
36383;SDS011;22418;51.210;6.976;2024-01-25T05:15:16;61.83;;;10.60;;
36383;SDS011;22418;51.210;6.976;2024-01-25T05:17:46;68.87;;;9.83;;
36383;SDS011;22418;51.210;6.976;2024-01-25T05:20:19;50.58;;;8.77;;
36383;SDS011;22418;51.210;6.976;2024-01-25T05:22:50;59.53;;;9.50;;
36383;SDS011;22418;51.210;6.976;2024-01-25T05:25:20;52.33;;;8.37;;
36383;SDS011;22418;51.210;6.976;2024-01-25T05:27:51;49.93;;;8.03;;
36383;SDS011;22418;51.210;6.976;2024-01-25T05:30:23;55.20;;;8.60;;
36383;SDS011;22418;51.210;6.976;2024-01-25T05:32:54;52.60;;;8.27;;
36383;SDS011;22418;51.210;6.976;2024-01-25T05:35:24;59.83;;;7.73;;
36383;SDS011;22418;51.210;6.976;2024-01-25T05:37:55;54.10;;;7.50;;
36383;SDS011;22418;51.210;6.976;2024-01-25T05:42:59;43.72;;;7.00;;
36383;SDS011;22418;51.210;6.976;2024-01-25T05:45:29;41.20;;;7.50;;
36383;SDS011;22418;51.210;6.976;2024-01-25T05:48:00;47.60;;;7.33;;
36383;SDS011;22418;51.210;6.976;2024-01-25T05:50:30;51.70;;;8.33;;
36383;SDS011;22418;51.210;6.976;2024-01-25T05:53:01;52.47;;;8.80;;
36383;SDS011;22418;51.210;6.976;2024-01-25T05:55:32;49.23;;;8.23;;
36383;SDS011;22418;51.210;6.976;2024-01-25T05:58:02;65.03;;;10.47;;
36383;SDS011;22418;51.210;6.976;2024-01-25T06:00:33;66.70;;;9.73;;
36383;SDS011;22418;51.210;6.976;2024-01-25T06:03:03;58.17;;;8.97;;
36383;SDS011;22418;51.210;6.976;2024-01-25T06:05:34;58.45;;;8.32;;
36383;SDS011;22418;51.210;6.976;2024-01-25T06:08:05;44.73;;;9.23;;
36383;SDS011;22418;51.210;6.976;2024-01-25T06:10:36;65.22;;;9.50;;
36383;SDS011;22418;51.210;6.976;2024-01-25T06:13:06;59.70;;;9.53;;
36383;SDS011;22418;51.210;6.976;2024-01-25T06:15:37;58.23;;;9.07;;
36383;SDS011;22418;51.210;6.976;2024-01-25T06:18:08;65.68;;;10.23;;
36383;SDS011;22418;51.210;6.976;2024-01-25T06:20:39;53.37;;;8.53;;
36383;SDS011;22418;51.210;6.976;2024-01-25T06:23:09;50.80;;;8.50;;
36383;SDS011;22418;51.210;6.976;2024-01-25T06:25:40;56.17;;;8.33;;
36383;SDS011;22418;51.210;6.976;2024-01-25T06:28:11;53.73;;;7.73;;
36383;SDS011;22418;51.210;6.976;2024-01-25T06:30:41;56.47;;;8.03;;
36383;SDS011;22418;51.210;6.976;2024-01-25T06:33:12;73.80;;;11.40;;
36383;SDS011;22418;51.210;6.976;2024-01-25T06:35:42;51.30;;;9.93;;
36383;SDS011;22418;51.210;6.976;2024-01-25T06:38:13;41.20;;;8.23;;
36383;SDS011;22418;51.210;6.976;2024-01-25T06:40:43;46.20;;;7.77;;
36383;SDS011;22418;51.210;6.976;2024-01-25T06:43:14;54.67;;;8.27;;
36383;SDS011;22418;51.210;6.976;2024-01-25T06:45:44;48.83;;;8.67;;
36383;SDS011;22418;51.210;6.976;2024-01-25T06:48:15;57.93;;;8.50;;
36383;SDS011;22418;51.210;6.976;2024-01-25T06:50:46;62.57;;;9.00;;
36383;SDS011;22418;51.210;6.976;2024-01-25T06:53:16;51.43;;;8.50;;
36383;SDS011;22418;51.210;6.976;2024-01-25T06:55:47;49.65;;;9.27;;
36383;SDS011;22418;51.210;6.976;2024-01-25T06:58:17;43.20;;;8.73;;
36383;SDS011;22418;51.210;6.976;2024-01-25T07:00:48;53.63;;;9.00;;
36383;SDS011;22418;51.210;6.976;2024-01-25T07:03:19;51.13;;;9.37;;
36383;SDS011;22418;51.210;6.976;2024-01-25T07:05:49;54.33;;;8.20;;
36383;SDS011;22418;51.210;6.976;2024-01-25T07:08:20;56.50;;;11.13;;
36383;SDS011;22418;51.210;6.976;2024-01-25T07:10:51;68.75;;;10.55;;
36383;SDS011;22418;51.210;6.976;2024-01-25T07:13:22;56.33;;;9.40;;
36383;SDS011;22418;51.210;6.976;2024-01-25T07:15:52;68.63;;;12.07;;
36383;SDS011;22418;51.210;6.976;2024-01-25T07:18:23;56.17;;;9.07;;
36383;SDS011;22418;51.210;6.976;2024-01-25T07:20:54;64.18;;;8.65;;
36383;SDS011;22418;51.210;6.976;2024-01-25T07:23:25;50.67;;;8.20;;
36383;SDS011;22418;51.210;6.976;2024-01-25T07:25:56;59.05;;;10.10;;
36383;SDS011;22418;51.210;6.976;2024-01-25T07:28:27;50.60;;;8.47;;
36383;SDS011;22418;51.210;6.976;2024-01-25T07:30:58;54.40;;;9.50;;
36383;SDS011;22418;51.210;6.976;2024-01-25T07:33:28;45.70;;;7.60;;
36383;SDS011;22418;51.210;6.976;2024-01-25T07:35:59;60.13;;;8.70;;
36383;SDS011;22418;51.210;6.976;2024-01-25T07:38:29;55.27;;;8.80;;
36383;SDS011;22418;51.210;6.976;2024-01-25T07:41:00;47.30;;;9.43;;
36383;SDS011;22418;51.210;6.976;2024-01-25T07:43:30;64.47;;;11.03;;
36383;SDS011;22418;51.210;6.976;2024-01-25T07:46:01;51.43;;;8.93;;
36383;SDS011;22418;51.210;6.976;2024-01-25T07:48:31;66.63;;;9.60;;
36383;SDS011;22418;51.210;6.976;2024-01-25T07:51:02;60.90;;;10.23;;
36383;SDS011;22418;51.210;6.976;2024-01-25T07:53:33;74.88;;;12.95;;
36383;SDS011;22418;51.210;6.976;2024-01-25T07:56:03;56.13;;;9.63;;
36383;SDS011;22418;51.210;6.976;2024-01-25T07:58:37;52.03;;;9.45;;
36383;SDS011;22418;51.210;6.976;2024-01-25T08:01:07;53.17;;;8.47;;
36383;SDS011;22418;51.210;6.976;2024-01-25T08:03:39;51.70;;;9.63;;
36383;SDS011;22418;51.210;6.976;2024-01-25T08:06:09;58.57;;;9.50;;
36383;SDS011;22418;51.210;6.976;2024-01-25T08:08:40;66.50;;;10.70;;
36383;SDS011;22418;51.210;6.976;2024-01-25T08:11:10;52.90;;;9.47;;
36383;SDS011;22418;51.210;6.976;2024-01-25T08:13:44;59.77;;;9.07;;
36383;SDS011;22418;51.210;6.976;2024-01-25T08:16:14;58.25;;;9.52;;
36383;SDS011;22418;51.210;6.976;2024-01-25T08:18:49;77.20;;;11.27;;
36383;SDS011;22418;51.210;6.976;2024-01-25T08:21:20;57.77;;;9.93;;
36383;SDS011;22418;51.210;6.976;2024-01-25T08:23:50;50.57;;;9.90;;
36383;SDS011;22418;51.210;6.976;2024-01-25T08:26:21;48.20;;;9.60;;
36383;SDS011;22418;51.210;6.976;2024-01-25T08:28:51;62.80;;;10.70;;
36383;SDS011;22418;51.210;6.976;2024-01-25T08:31:22;47.80;;;9.77;;
36383;SDS011;22418;51.210;6.976;2024-01-25T08:33:53;53.28;;;9.82;;
36383;SDS011;22418;51.210;6.976;2024-01-25T08:36:23;56.00;;;9.90;;
36383;SDS011;22418;51.210;6.976;2024-01-25T08:38:54;54.97;;;10.35;;
36383;SDS011;22418;51.210;6.976;2024-01-25T08:41:25;70.77;;;10.10;;
36383;SDS011;22418;51.210;6.976;2024-01-25T08:43:55;53.10;;;10.43;;
36383;SDS011;22418;51.210;6.976;2024-01-25T08:46:26;52.07;;;9.60;;
36383;SDS011;22418;51.210;6.976;2024-01-25T08:48:56;58.03;;;9.33;;
36383;SDS011;22418;51.210;6.976;2024-01-25T08:51:27;51.30;;;9.80;;
36383;SDS011;22418;51.210;6.976;2024-01-25T08:53:58;72.70;;;10.97;;
36383;SDS011;22418;51.210;6.976;2024-01-25T08:56:28;61.10;;;10.60;;
36383;SDS011;22418;51.210;6.976;2024-01-25T08:58:59;65.53;;;10.80;;
36383;SDS011;22418;51.210;6.976;2024-01-25T09:01:30;79.70;;;11.85;;
36383;SDS011;22418;51.210;6.976;2024-01-25T09:04:00;62.47;;;10.53;;
36383;SDS011;22418;51.210;6.976;2024-01-25T09:06:32;71.70;;;10.90;;
36383;SDS011;22418;51.210;6.976;2024-01-25T09:09:03;80.37;;;11.43;;
36383;SDS011;22418;51.210;6.976;2024-01-25T09:11:33;69.60;;;12.50;;
36383;SDS011;22418;51.210;6.976;2024-01-25T09:14:04;79.47;;;13.27;;
36383;SDS011;22418;51.210;6.976;2024-01-25T09:16:34;66.07;;;11.37;;
36383;SDS011;22418;51.210;6.976;2024-01-25T09:19:07;76.25;;;13.07;;
36383;SDS011;22418;51.210;6.976;2024-01-25T09:21:38;80.17;;;12.77;;
36383;SDS011;22418;51.210;6.976;2024-01-25T09:24:09;67.30;;;11.23;;
36383;SDS011;22418;51.210;6.976;2024-01-25T09:26:40;78.60;;;12.80;;
36383;SDS011;22418;51.210;6.976;2024-01-25T09:29:11;65.33;;;11.90;;
36383;SDS011;22418;51.210;6.976;2024-01-25T09:31:41;86.20;;;12.63;;
36383;SDS011;22418;51.210;6.976;2024-01-25T09:34:12;76.15;;;12.82;;
36383;SDS011;22418;51.210;6.976;2024-01-25T09:36:43;67.70;;;11.17;;
36383;SDS011;22418;51.210;6.976;2024-01-25T09:39:13;76.90;;;13.23;;
36383;SDS011;22418;51.210;6.976;2024-01-25T09:41:44;77.97;;;12.70;;
36383;SDS011;22418;51.210;6.976;2024-01-25T09:44:14;67.37;;;12.33;;
36383;SDS011;22418;51.210;6.976;2024-01-25T09:46:47;83.13;;;11.90;;
36383;SDS011;22418;51.210;6.976;2024-01-25T09:49:18;76.38;;;12.20;;
36383;SDS011;22418;51.210;6.976;2024-01-25T09:51:49;72.87;;;12.60;;
36383;SDS011;22418;51.210;6.976;2024-01-25T09:54:21;86.47;;;13.20;;
36383;SDS011;22418;51.210;6.976;2024-01-25T09:56:52;77.28;;;14.30;;
36383;SDS011;22418;51.210;6.976;2024-01-25T09:59:25;75.82;;;14.30;;
36383;SDS011;22418;51.210;6.976;2024-01-25T10:04:27;79.00;;;14.23;;
36383;SDS011;22418;51.210;6.976;2024-01-25T10:06:58;80.17;;;15.17;;
36383;SDS011;22418;51.210;6.976;2024-01-25T10:09:31;76.35;;;15.25;;
36383;SDS011;22418;51.210;6.976;2024-01-25T10:12:12;94.53;;;18.92;;
36383;SDS011;22418;51.210;6.976;2024-01-25T10:14:42;81.83;;;16.33;;
36383;SDS011;22418;51.210;6.976;2024-01-25T10:17:13;81.57;;;17.70;;
36383;SDS011;22418;51.210;6.976;2024-01-25T10:19:44;74.85;;;15.75;;
36383;SDS011;22418;51.210;6.976;2024-01-25T10:22:15;78.87;;;15.20;;
36383;SDS011;22418;51.210;6.976;2024-01-25T10:24:46;77.72;;;13.82;;
36383;SDS011;22418;51.210;6.976;2024-01-25T10:27:17;61.97;;;13.73;;
36383;SDS011;22418;51.210;6.976;2024-01-25T10:29:48;85.20;;;15.35;;
36383;SDS011;22418;51.210;6.976;2024-01-25T10:32:20;66.65;;;14.40;;
36383;SDS011;22418;51.210;6.976;2024-01-25T10:34:51;77.53;;;15.93;;
36383;SDS011;22418;51.210;6.976;2024-01-25T10:37:22;61.90;;;15.13;;
36383;SDS011;22418;51.210;6.976;2024-01-25T10:39:54;82.47;;;17.52;;
36383;SDS011;22418;51.210;6.976;2024-01-25T10:42:25;89.80;;;18.08;;
36383;SDS011;22418;51.210;6.976;2024-01-25T10:44:56;72.77;;;16.57;;
36383;SDS011;22418;51.210;6.976;2024-01-25T10:47:27;76.57;;;17.67;;
36383;SDS011;22418;51.210;6.976;2024-01-25T10:50:01;74.90;;;16.30;;
36383;SDS011;22418;51.210;6.976;2024-01-25T10:52:32;78.15;;;17.33;;
36383;SDS011;22418;51.210;6.976;2024-01-25T10:55:03;75.43;;;17.73;;
36383;SDS011;22418;51.210;6.976;2024-01-25T10:57:35;64.75;;;16.83;;
36383;SDS011;22418;51.210;6.976;2024-01-25T11:00:09;88.95;;;21.42;;
36383;SDS011;22418;51.210;6.976;2024-01-25T11:02:44;81.72;;;16.63;;
36383;SDS011;22418;51.210;6.976;2024-01-25T11:05:19;64.75;;;15.07;;
36383;SDS011;22418;51.210;6.976;2024-01-25T11:07:50;77.43;;;16.45;;
36383;SDS011;22418;51.210;6.976;2024-01-25T11:10:21;64.83;;;14.37;;
36383;SDS011;22418;51.210;6.976;2024-01-25T11:12:58;82.00;;;15.25;;
36383;SDS011;22418;51.210;6.976;2024-01-25T11:15:30;77.35;;;15.23;;
36383;SDS011;22418;51.210;6.976;2024-01-25T11:18:03;71.28;;;14.45;;
36383;SDS011;22418;51.210;6.976;2024-01-25T11:20:38;81.22;;;16.45;;
36383;SDS011;22418;51.210;6.976;2024-01-25T11:23:09;67.47;;;15.30;;
36383;SDS011;22418;51.210;6.976;2024-01-25T11:25:39;80.30;;;15.97;;
36383;SDS011;22418;51.210;6.976;2024-01-25T11:28:10;70.03;;;16.97;;
36383;SDS011;22418;51.210;6.976;2024-01-25T11:30:41;76.13;;;16.17;;
36383;SDS011;22418;51.210;6.976;2024-01-25T11:33:12;74.82;;;15.38;;
36383;SDS011;22418;51.210;6.976;2024-01-25T11:38:23;61.25;;;15.38;;
36383;SDS011;22418;51.210;6.976;2024-01-25T11:40:56;70.33;;;16.17;;
36383;SDS011;22418;51.210;6.976;2024-01-25T11:43:31;77.22;;;14.00;;
36383;SDS011;22418;51.210;6.976;2024-01-25T11:52:51;70.90;;;14.88;;
36383;SDS011;22418;51.210;6.976;2024-01-25T11:55:24;69.47;;;13.95;;
36383;SDS011;22418;51.210;6.976;2024-01-25T11:57:55;71.35;;;14.27;;
36383;SDS011;22418;51.210;6.976;2024-01-25T12:00:26;65.53;;;13.73;;
36383;SDS011;22418;51.210;6.976;2024-01-25T12:02:56;73.90;;;15.23;;
36383;SDS011;22418;51.210;6.976;2024-01-25T12:05:27;75.83;;;14.77;;
36383;SDS011;22418;51.210;6.976;2024-01-25T12:07:58;67.67;;;13.53;;
36383;SDS011;22418;51.210;6.976;2024-01-25T12:10:29;61.95;;;13.75;;
36383;SDS011;22418;51.210;6.976;2024-01-25T12:12:59;58.00;;;14.73;;
36383;SDS011;22418;51.210;6.976;2024-01-25T12:15:32;55.22;;;14.20;;
36383;SDS011;22418;51.210;6.976;2024-01-25T12:18:02;64.18;;;15.45;;
36383;SDS011;22418;51.210;6.976;2024-01-25T12:20:35;76.40;;;16.15;;
36383;SDS011;22418;51.210;6.976;2024-01-25T12:23:07;67.45;;;17.33;;
36383;SDS011;22418;51.210;6.976;2024-01-25T12:25:39;72.05;;;17.10;;
36383;SDS011;22418;51.210;6.976;2024-01-25T12:28:10;79.80;;;17.27;;
36383;SDS011;22418;51.210;6.976;2024-01-25T12:30:41;77.47;;;17.77;;
36383;SDS011;22418;51.210;6.976;2024-01-25T12:33:11;79.27;;;16.87;;
36383;SDS011;22418;51.210;6.976;2024-01-25T12:35:43;79.07;;;18.15;;
36383;SDS011;22418;51.210;6.976;2024-01-25T12:38:14;74.93;;;18.43;;
36383;SDS011;22418;51.210;6.976;2024-01-25T12:40:45;68.37;;;16.83;;
36383;SDS011;22418;51.210;6.976;2024-01-25T12:43:18;78.20;;;20.02;;
36383;SDS011;22418;51.210;6.976;2024-01-25T12:45:51;75.40;;;18.92;;
36383;SDS011;22418;51.210;6.976;2024-01-25T12:48:21;84.90;;;19.57;;
36383;SDS011;22418;51.210;6.976;2024-01-25T12:50:52;101.97;;;21.73;;
36383;SDS011;22418;51.210;6.976;2024-01-25T12:53:23;86.27;;;18.97;;
36383;SDS011;22418;51.210;6.976;2024-01-25T12:55:53;78.90;;;19.40;;
36383;SDS011;22418;51.210;6.976;2024-01-25T12:58:24;69.30;;;19.37;;
36383;SDS011;22418;51.210;6.976;2024-01-25T13:00:54;75.93;;;19.47;;
36383;SDS011;22418;51.210;6.976;2024-01-25T13:03:25;70.93;;;19.73;;
36383;SDS011;22418;51.210;6.976;2024-01-25T13:05:56;89.13;;;19.77;;
36383;SDS011;22418;51.210;6.976;2024-01-25T13:08:26;79.63;;;20.40;;
36383;SDS011;22418;51.210;6.976;2024-01-25T13:10:57;74.47;;;18.57;;
36383;SDS011;22418;51.210;6.976;2024-01-25T13:13:27;88.17;;;20.33;;
36383;SDS011;22418;51.210;6.976;2024-01-25T13:15:58;71.43;;;18.63;;
36383;SDS011;22418;51.210;6.976;2024-01-25T13:18:28;77.37;;;17.50;;
36383;SDS011;22418;51.210;6.976;2024-01-25T13:20:59;81.97;;;18.43;;
36383;SDS011;22418;51.210;6.976;2024-01-25T13:23:29;79.67;;;17.70;;
36383;SDS011;22418;51.210;6.976;2024-01-25T13:26:00;77.93;;;18.23;;
36383;SDS011;22418;51.210;6.976;2024-01-25T13:28:31;71.30;;;17.35;;
36383;SDS011;22418;51.210;6.976;2024-01-25T13:31:02;80.47;;;18.17;;
36383;SDS011;22418;51.210;6.976;2024-01-25T13:33:32;86.70;;;19.17;;
36383;SDS011;22418;51.210;6.976;2024-01-25T13:36:03;80.27;;;18.33;;
36383;SDS011;22418;51.210;6.976;2024-01-25T13:38:38;72.32;;;17.95;;
36383;SDS011;22418;51.210;6.976;2024-01-25T13:41:09;66.30;;;17.70;;
36383;SDS011;22418;51.210;6.976;2024-01-25T13:43:39;81.40;;;18.03;;
36383;SDS011;22418;51.210;6.976;2024-01-25T13:46:10;61.33;;;16.10;;
36383;SDS011;22418;51.210;6.976;2024-01-25T13:48:41;91.83;;;18.27;;
36383;SDS011;22418;51.210;6.976;2024-01-25T13:51:12;69.87;;;16.27;;
36383;SDS011;22418;51.210;6.976;2024-01-25T13:53:42;64.13;;;16.98;;
36383;SDS011;22418;51.210;6.976;2024-01-25T13:56:13;74.23;;;16.27;;
36383;SDS011;22418;51.210;6.976;2024-01-25T13:58:43;75.03;;;16.33;;
36383;SDS011;22418;51.210;6.976;2024-01-25T14:01:14;79.30;;;17.80;;
36383;SDS011;22418;51.210;6.976;2024-01-25T14:03:44;68.47;;;16.53;;
36383;SDS011;22418;51.210;6.976;2024-01-25T14:06:15;72.07;;;16.77;;
36383;SDS011;22418;51.210;6.976;2024-01-25T14:08:46;81.67;;;16.20;;
36383;SDS011;22418;51.210;6.976;2024-01-25T14:11:17;64.38;;;15.10;;
36383;SDS011;22418;51.210;6.976;2024-01-25T14:13:47;70.47;;;14.73;;
36383;SDS011;22418;51.210;6.976;2024-01-25T14:16:18;56.77;;;13.83;;
36383;SDS011;22418;51.210;6.976;2024-01-25T14:18:48;70.43;;;14.93;;
36383;SDS011;22418;51.210;6.976;2024-01-25T14:21:19;64.77;;;14.23;;
36383;SDS011;22418;51.210;6.976;2024-01-25T14:23:51;66.07;;;14.90;;
36383;SDS011;22418;51.210;6.976;2024-01-25T14:26:21;74.23;;;15.07;;
36383;SDS011;22418;51.210;6.976;2024-01-25T14:28:52;69.33;;;12.93;;
36383;SDS011;22418;51.210;6.976;2024-01-25T14:31:22;69.77;;;12.90;;
36383;SDS011;22418;51.210;6.976;2024-01-25T14:33:53;61.17;;;13.83;;
36383;SDS011;22418;51.210;6.976;2024-01-25T14:36:23;61.47;;;13.10;;
36383;SDS011;22418;51.210;6.976;2024-01-25T14:38:54;59.10;;;12.13;;
36383;SDS011;22418;51.210;6.976;2024-01-25T14:41:25;70.67;;;13.20;;
36383;SDS011;22418;51.210;6.976;2024-01-25T14:43:55;69.33;;;12.20;;
36383;SDS011;22418;51.210;6.976;2024-01-25T14:46:26;67.13;;;13.20;;
36383;SDS011;22418;51.210;6.976;2024-01-25T14:48:56;58.13;;;11.47;;
36383;SDS011;22418;51.210;6.976;2024-01-25T14:51:28;68.00;;;12.50;;
36383;SDS011;22418;51.210;6.976;2024-01-25T14:53:58;57.50;;;11.60;;
36383;SDS011;22418;51.210;6.976;2024-01-25T14:56:29;62.15;;;12.05;;
36383;SDS011;22418;51.210;6.976;2024-01-25T14:59:00;57.35;;;12.45;;
36383;SDS011;22418;51.210;6.976;2024-01-25T15:01:30;72.37;;;12.17;;
36383;SDS011;22418;51.210;6.976;2024-01-25T15:04:01;55.10;;;10.90;;
36383;SDS011;22418;51.210;6.976;2024-01-25T15:06:32;60.70;;;11.63;;
36383;SDS011;22418;51.210;6.976;2024-01-25T15:09:02;57.43;;;11.70;;
36383;SDS011;22418;51.210;6.976;2024-01-25T15:11:33;68.40;;;11.90;;